createdAt,value
2018-06-03T00:01:08.086Z,38.30
2018-06-03T00:03:42.798Z,37.30
2018-06-03T00:06:13.292Z,40.57
2018-06-03T00:11:20.049Z,38.13
2018-06-03T00:13:50.240Z,39.40
2018-06-03T00:16:20.689Z,40.27
2018-06-03T00:18:50.967Z,39.97
2018-06-03T00:21:31.880Z,38.13
2018-06-03T00:24:02.613Z,40.83
2018-06-03T00:26:33.386Z,41.80
2018-06-03T00:31:42.363Z,42.40
2018-06-03T00:34:12.700Z,40.33
2018-06-03T00:36:47.233Z,39.00
2018-06-03T00:41:53.222Z,38.60
2018-06-03T00:44:23.610Z,39.37
2018-06-03T00:46:54.352Z,40.67
2018-06-03T00:49:28.607Z,39.47
2018-06-03T00:51:59.143Z,35.43
2018-06-03T00:54:29.311Z,36.43
2018-06-03T00:57:10.673Z,34.57
2018-06-03T00:59:41.505Z,34.80
2018-06-03T01:04:53.191Z,36.87
2018-06-03T01:07:23.702Z,33.20
2018-06-03T01:09:53.950Z,34.53
2018-06-03T01:15:00.292Z,33.93
2018-06-03T01:17:31.044Z,34.00
2018-06-03T01:20:07.061Z,33.33
2018-06-03T01:22:37.340Z,32.40
2018-06-03T01:25:07.648Z,34.27
2018-06-03T01:32:54.394Z,34.33
2018-06-03T01:35:24.718Z,34.67
2018-06-03T01:37:58.236Z,33.53
2018-06-03T01:40:28.614Z,31.67
2018-06-03T01:42:58.948Z,32.63
2018-06-03T01:48:07.209Z,35.73
2018-06-03T01:50:37.535Z,35.30
2018-06-03T01:53:08.446Z,34.40
2018-06-03T01:55:39.076Z,36.07
2018-06-03T01:58:12.599Z,33.57
2018-06-03T02:00:43.609Z,35.60
2018-06-03T02:03:14.057Z,36.10
2018-06-03T02:05:49.902Z,34.97
2018-06-03T02:11:00.527Z,37.60
2018-06-03T02:13:30.524Z,35.53
2018-06-03T02:16:00.964Z,37.17
2018-06-03T02:18:32.246Z,34.40
2018-06-03T02:21:02.763Z,33.90
2018-06-03T02:26:09.887Z,37.03
2018-06-03T02:28:40.506Z,37.43
2018-06-03T02:31:10.591Z,37.03
2018-06-03T02:33:41.095Z,35.90
2018-06-03T02:38:52.652Z,34.47
2018-06-03T02:41:23.236Z,36.53
2018-06-03T02:43:54.593Z,35.27
2018-06-03T02:46:25.403Z,37.13
2018-06-03T02:48:55.901Z,36.40
2018-06-03T02:51:26.564Z,36.00
2018-06-03T02:53:57.179Z,37.43
2018-06-03T02:56:27.023Z,32.77
2018-06-03T02:58:57.127Z,32.13
2018-06-03T03:01:27.454Z,30.83
2018-06-03T03:06:37.936Z,29.93
2018-06-03T03:09:08.820Z,32.13
2018-06-03T03:11:43.448Z,31.53
2018-06-03T03:14:14.356Z,31.80
2018-06-03T03:16:44.953Z,32.87
2018-06-03T03:19:18.733Z,28.87
2018-06-03T03:21:50.048Z,31.60
2018-06-03T03:24:20.510Z,31.00
2018-06-03T03:26:50.894Z,30.73
2018-06-03T03:29:21.007Z,30.27
2018-06-03T03:34:31.926Z,30.83
2018-06-03T03:37:09.315Z,30.80
2018-06-03T03:39:39.657Z,36.43
2018-06-03T03:42:10.001Z,37.93
2018-06-03T03:44:47.546Z,34.97
2018-06-03T03:47:17.819Z,34.87
2018-06-03T03:52:27.706Z,35.10
2018-06-03T03:54:57.712Z,33.03
2018-06-03T03:57:28.367Z,33.97
2018-06-03T04:00:02.557Z,34.40
2018-06-03T04:02:33.145Z,31.23
2018-06-03T04:05:03.324Z,34.10
2018-06-03T04:07:33.359Z,36.07
2018-06-03T04:10:04.011Z,33.90
2018-06-03T04:12:35.496Z,32.27
2018-06-03T04:15:05.202Z,34.13
2018-06-03T04:17:36.998Z,31.30
2018-06-03T04:20:06.859Z,32.37
2018-06-03T04:22:43.893Z,31.50
2018-06-03T04:25:13.552Z,28.07
2018-06-03T04:27:48.151Z,27.10
2018-06-03T04:30:18.220Z,25.87
2018-06-03T04:32:48.621Z,25.87
2018-06-03T04:35:18.711Z,25.87
2018-06-03T04:37:47.939Z,27.57
2018-06-03T04:40:17.917Z,27.93
2018-06-03T04:42:47.855Z,26.33
2018-06-03T04:45:17.935Z,26.17
2018-06-03T04:47:47.941Z,25.23
2018-06-03T04:50:17.879Z,27.17
2018-06-03T04:52:53.066Z,26.33
2018-06-03T04:55:23.173Z,27.30
2018-06-03T04:57:54.413Z,26.87
2018-06-03T05:00:24.873Z,27.63
2018-06-03T05:02:55.791Z,30.50
2018-06-03T05:08:02.017Z,26.53
2018-06-03T05:10:32.171Z,27.67
2018-06-03T05:13:02.967Z,30.07
2018-06-03T05:15:32.945Z,31.70
2018-06-03T05:18:02.760Z,33.00
2018-06-03T05:20:38.352Z,39.00
2018-06-03T05:23:08.442Z,37.50
2018-06-03T05:25:38.518Z,39.33
2018-06-03T05:28:08.676Z,38.00
2018-06-03T05:30:38.491Z,35.30
2018-06-03T05:33:08.538Z,40.63
2018-06-03T05:35:38.350Z,44.97
2018-06-03T05:38:08.499Z,45.07
2018-06-03T05:40:38.491Z,48.70
2018-06-03T05:43:08.688Z,48.60
2018-06-03T05:45:38.901Z,42.90
2018-06-03T05:50:44.447Z,45.40
2018-06-03T05:53:14.621Z,47.40
2018-06-03T05:55:44.289Z,45.00
2018-06-03T05:58:14.113Z,43.97
2018-06-03T06:00:44.117Z,43.00
2018-06-03T06:03:14.188Z,45.57
2018-06-03T06:05:44.579Z,43.53
2018-06-03T06:08:14.473Z,45.77
2018-06-03T06:10:44.449Z,45.63
2018-06-03T06:13:14.263Z,49.57
2018-06-03T06:15:44.177Z,50.40
2018-06-03T06:18:14.805Z,49.60
2018-06-03T06:20:44.842Z,46.83
2018-06-03T06:23:15.076Z,48.37
2018-06-03T06:25:44.842Z,47.20
2018-06-03T06:28:14.690Z,49.90
2018-06-03T06:30:44.524Z,48.73
2018-06-03T06:33:14.415Z,45.60
2018-06-03T06:35:44.085Z,45.73
2018-06-03T06:38:15.879Z,48.73
2018-06-03T06:40:46.115Z,49.00
2018-06-03T06:43:15.653Z,47.03
2018-06-03T06:45:45.359Z,47.80
2018-06-03T06:48:23.294Z,47.37
2018-06-03T06:50:53.546Z,49.10
2018-06-03T06:53:23.781Z,46.07
2018-06-03T06:55:53.603Z,46.73
2018-06-03T06:58:29.077Z,46.53
2018-06-03T07:00:58.735Z,48.27
2018-06-03T07:03:28.930Z,48.83
2018-06-03T07:05:58.840Z,47.83
2018-06-03T07:08:28.385Z,49.53
2018-06-03T07:10:58.843Z,47.17
2018-06-03T07:13:28.720Z,47.17
2018-06-03T07:15:59.968Z,49.57
2018-06-03T07:18:29.787Z,46.40
2018-06-03T07:23:39.016Z,47.53
2018-06-03T07:26:09.469Z,48.33
2018-06-03T07:28:39.315Z,46.07
2018-06-03T07:31:13.556Z,47.20
2018-06-03T07:33:43.481Z,51.60
2018-06-03T07:36:17.090Z,46.33
2018-06-03T07:38:46.960Z,48.43
2018-06-03T07:41:16.942Z,45.03
2018-06-03T07:43:47.013Z,50.27
2018-06-03T07:46:16.897Z,53.43
2018-06-03T07:48:48.134Z,54.00
2018-06-03T07:51:18.200Z,54.73
2018-06-03T07:53:48.460Z,54.27
2018-06-03T07:56:18.825Z,51.27
2018-06-03T08:01:25.264Z,52.83
2018-06-03T08:03:55.279Z,50.50
2018-06-03T08:06:25.373Z,50.77
2018-06-03T08:08:56.198Z,55.53
2018-06-03T08:11:25.700Z,53.23
2018-06-03T08:13:59.770Z,55.73
2018-06-03T08:16:29.650Z,55.00
2018-06-03T08:19:00.403Z,55.10
2018-06-03T08:21:30.243Z,53.87
2018-06-03T08:23:59.989Z,54.23
2018-06-03T08:26:33.733Z,52.63
2018-06-03T08:29:04.017Z,55.40
2018-06-03T08:31:34.392Z,51.43
2018-06-03T08:34:04.263Z,54.27
2018-06-03T08:36:34.073Z,55.63
2018-06-03T08:39:06.362Z,51.23
2018-06-03T08:41:36.561Z,50.93
2018-06-03T08:44:06.779Z,48.17
2018-06-03T08:46:36.421Z,46.33
2018-06-03T08:49:06.707Z,45.97
2018-06-03T08:51:36.998Z,45.50
2018-06-03T08:54:07.961Z,42.47
2018-06-03T08:56:38.023Z,41.83
2018-06-03T08:59:10.445Z,39.67
2018-06-03T09:01:40.649Z,38.37
2018-06-03T09:04:15.960Z,35.47
2018-06-03T09:06:46.182Z,37.37
2018-06-03T09:09:16.666Z,34.23
2018-06-03T09:11:46.960Z,33.47
2018-06-03T09:14:17.702Z,32.63
2018-06-03T09:16:47.924Z,33.37
2018-06-03T09:19:21.015Z,31.07
2018-06-03T09:21:50.312Z,28.77
2018-06-03T09:24:20.975Z,23.57
2018-06-03T09:26:51.243Z,28.57
2018-06-03T09:29:23.282Z,30.27
2018-06-03T09:31:54.096Z,30.83
2018-06-03T09:34:27.059Z,29.17
2018-06-03T09:36:57.001Z,30.13
2018-06-03T09:39:30.951Z,32.10
2018-06-03T09:42:00.990Z,31.00
2018-06-03T09:44:31.402Z,31.30
2018-06-03T09:47:08.804Z,35.93
2018-06-03T09:49:39.524Z,33.57
2018-06-03T09:54:51.492Z,36.73
2018-06-03T09:57:21.824Z,37.23
2018-06-03T09:59:53.001Z,36.83
2018-06-03T10:02:22.939Z,36.87
2018-06-03T10:04:54.114Z,36.47
2018-06-03T10:07:27.608Z,37.17
2018-06-03T10:09:57.808Z,37.63
2018-06-03T10:12:27.801Z,37.05
2018-06-03T10:15:01.337Z,36.17
2018-06-03T10:17:31.599Z,36.60
2018-06-03T10:20:02.342Z,37.00
2018-06-03T10:22:33.530Z,36.20
2018-06-03T10:25:07.555Z,37.48
2018-06-03T10:27:37.833Z,34.25
2018-06-03T10:30:08.062Z,37.08
2018-06-03T10:32:38.481Z,37.67
2018-06-03T10:35:14.526Z,35.35
2018-06-03T10:37:45.076Z,34.30
2018-06-03T10:40:19.268Z,36.80
2018-06-03T10:42:53.145Z,37.40
2018-06-03T10:45:24.536Z,39.27
2018-06-03T10:47:56.045Z,40.03
2018-06-03T10:50:31.612Z,38.40
2018-06-03T10:53:01.756Z,41.77
2018-06-03T10:55:33.795Z,41.47
2018-06-03T10:58:04.068Z,37.47
2018-06-03T11:00:39.480Z,36.73
2018-06-03T11:05:44.673Z,36.20
2018-06-03T11:08:14.949Z,38.00
2018-06-03T11:10:45.217Z,36.40
2018-06-03T11:13:18.979Z,37.97
2018-06-03T11:15:49.144Z,34.53
2018-06-03T11:18:19.855Z,34.77
2018-06-03T11:20:51.081Z,35.07
2018-06-03T11:23:22.143Z,35.80
2018-06-03T11:25:53.600Z,31.63
2018-06-03T11:28:24.833Z,34.40
2018-06-03T11:30:59.588Z,33.67
2018-06-03T11:33:29.426Z,33.67
2018-06-03T11:38:36.076Z,30.85
2018-06-03T11:41:07.026Z,33.18
2018-06-03T11:43:37.347Z,30.75
2018-06-03T11:46:15.497Z,30.92
2018-06-03T11:48:46.384Z,29.52
2018-06-03T11:51:16.644Z,29.00
2018-06-03T11:53:47.526Z,26.57
2018-06-03T11:56:17.445Z,27.75
2018-06-03T11:58:56.412Z,26.80
2018-06-03T12:04:06.059Z,28.07
2018-06-03T12:09:17.877Z,30.70
2018-06-03T12:11:48.560Z,28.47
2018-06-03T12:14:32.679Z,25.88
2018-06-03T12:19:51.502Z,29.40
2018-06-03T12:22:26.475Z,25.70
2018-06-03T12:24:59.462Z,24.80
2018-06-03T12:27:47.189Z,25.62
2018-06-03T12:30:21.421Z,25.60
2018-06-03T12:32:57.403Z,26.57
2018-06-03T12:35:28.109Z,25.85
2018-06-03T12:38:02.028Z,26.25
2018-06-03T12:40:33.297Z,24.92
2018-06-03T12:45:39.357Z,28.15
2018-06-03T12:48:09.280Z,26.37
2018-06-03T12:50:39.525Z,25.00
2018-06-03T12:53:16.270Z,25.32
2018-06-03T12:55:46.648Z,24.00
2018-06-03T12:58:16.956Z,23.83
2018-06-03T13:00:47.903Z,24.63
2018-06-03T13:03:23.103Z,24.27
2018-06-03T13:05:53.509Z,24.70
2018-06-03T13:08:24.498Z,23.60
2018-06-03T13:10:56.156Z,23.15
2018-06-03T13:13:28.404Z,23.02
2018-06-03T13:15:59.719Z,22.65
2018-06-03T13:18:34.847Z,22.58
2018-06-03T13:21:05.609Z,21.62
2018-06-03T13:23:40.893Z,25.23
2018-06-03T13:26:11.876Z,24.23
2018-06-03T13:28:46.212Z,25.65
2018-06-03T13:31:16.726Z,22.45
2018-06-03T13:33:49.010Z,24.82
2018-06-03T13:36:19.633Z,23.05
2018-06-03T13:38:51.397Z,23.50
2018-06-03T13:41:21.779Z,22.13
2018-06-03T13:43:56.157Z,23.77
2018-06-03T13:46:30.505Z,23.52
2018-06-03T13:49:00.944Z,20.62
2018-06-03T13:51:31.444Z,21.93
2018-06-03T13:54:01.772Z,20.80
2018-06-03T13:56:32.052Z,19.57
2018-06-03T13:59:01.960Z,22.32
2018-06-03T14:01:32.487Z,21.80
2018-06-03T14:04:03.530Z,21.48
2018-06-03T14:06:38.362Z,23.52
2018-06-03T14:09:09.319Z,21.07
2018-06-03T14:11:39.289Z,21.97
2018-06-03T14:14:09.670Z,23.05
2018-06-03T14:16:40.675Z,21.97
2018-06-03T14:19:11.273Z,22.27
2018-06-03T14:21:42.164Z,20.68
2018-06-03T14:24:13.380Z,21.85
2018-06-03T14:26:43.948Z,21.80
2018-06-03T14:29:19.303Z,22.50
2018-06-03T14:31:49.543Z,21.37
2018-06-03T14:34:19.539Z,24.30
2018-06-03T14:36:49.553Z,22.37
2018-06-03T14:39:19.669Z,21.75
2018-06-03T14:41:49.698Z,21.48
2018-06-03T14:44:22.320Z,26.50
2018-06-03T14:46:52.628Z,19.87
2018-06-03T14:49:23.048Z,17.15
2018-06-03T14:51:52.974Z,15.63
2018-06-03T14:54:23.165Z,15.72
2018-06-03T14:56:57.859Z,19.17
2018-06-03T14:59:28.225Z,17.95
2018-06-03T15:04:34.757Z,18.57
2018-06-03T15:07:08.736Z,17.57
2018-06-03T15:09:39.504Z,18.27
2018-06-03T15:12:10.940Z,17.52
2018-06-03T15:14:42.016Z,19.07
2018-06-03T15:17:12.613Z,15.65
2018-06-03T15:19:44.178Z,17.67
2018-06-03T15:22:16.991Z,15.18
2018-06-03T15:24:47.272Z,16.95
2018-06-03T15:27:17.632Z,15.72
2018-06-03T15:29:48.149Z,15.90
2018-06-03T15:32:18.163Z,14.65
2018-06-03T15:34:49.052Z,15.13
2018-06-03T15:37:18.867Z,14.53
2018-06-03T15:42:31.009Z,12.88
2018-06-03T15:45:01.346Z,13.90
2018-06-03T15:47:31.725Z,13.15
2018-06-03T15:50:01.981Z,11.95
2018-06-03T15:52:32.712Z,12.45
2018-06-03T15:55:03.412Z,12.55
2018-06-03T15:57:34.948Z,12.35
2018-06-03T16:00:05.903Z,11.70
2018-06-03T16:02:36.139Z,12.10
2018-06-03T16:05:06.814Z,13.03
2018-06-03T16:07:37.150Z,13.73
2018-06-03T16:10:07.816Z,12.25
2018-06-03T16:12:38.628Z,12.10
2018-06-03T16:15:09.106Z,11.90
2018-06-03T16:17:39.328Z,11.55
2018-06-03T16:20:09.523Z,11.10
2018-06-03T16:22:39.895Z,10.68
2018-06-03T16:25:10.312Z,9.90
2018-06-03T16:27:40.841Z,9.98
2018-06-03T16:30:11.769Z,8.85
2018-06-03T16:32:42.095Z,9.25
2018-06-03T16:35:12.748Z,10.28
2018-06-03T16:37:43.769Z,9.45
2018-06-03T16:40:14.450Z,9.83
2018-06-03T16:45:22.356Z,10.23
2018-06-03T16:47:53.456Z,10.10
2018-06-03T16:50:24.460Z,10.70
2018-06-03T16:52:55.108Z,9.65
2018-06-03T16:55:30.477Z,9.98
2018-06-03T16:58:04.033Z,10.98
2018-06-03T17:00:34.599Z,10.18
2018-06-03T17:03:04.297Z,10.72
2018-06-03T17:05:38.091Z,10.25
2018-06-03T17:08:08.535Z,10.08
2018-06-03T17:13:15.637Z,10.68
2018-06-03T17:15:46.196Z,10.98
2018-06-03T17:18:14.974Z,9.48
2018-06-03T17:20:54.079Z,9.33
2018-06-03T17:23:25.544Z,9.75
2018-06-03T17:25:55.234Z,9.25
2018-06-03T17:28:25.746Z,9.80
2018-06-03T17:30:55.847Z,8.68
2018-06-03T17:33:26.326Z,9.50
2018-06-03T17:35:55.237Z,9.53
2018-06-03T17:38:24.671Z,9.30
2018-06-03T17:40:55.069Z,9.30
2018-06-03T17:43:23.950Z,9.18
2018-06-03T17:45:56.755Z,8.75
2018-06-03T17:48:31.071Z,9.33
2018-06-03T17:51:01.366Z,9.00
2018-06-03T17:53:31.929Z,9.93
2018-06-03T17:56:02.686Z,9.37
2018-06-03T17:58:33.956Z,9.33
2018-06-03T18:01:05.522Z,8.13
2018-06-03T18:03:37.145Z,8.70
2018-06-03T18:06:07.992Z,8.50
2018-06-03T18:08:37.086Z,8.47
2018-06-03T18:11:06.211Z,9.03
2018-06-03T18:13:39.346Z,9.27
2018-06-03T18:16:15.521Z,9.30
2018-06-03T18:18:48.722Z,9.47
2018-06-03T18:21:20.318Z,9.37
2018-06-03T18:23:52.728Z,9.03
2018-06-03T18:26:23.829Z,9.50
2018-06-03T18:31:36.327Z,8.73
2018-06-03T18:34:08.417Z,9.07
2018-06-03T18:42:01.189Z,9.03
2018-06-03T18:44:36.531Z,9.30
2018-06-03T18:47:07.965Z,9.10
2018-06-03T18:49:38.846Z,9.47
2018-06-03T18:52:10.926Z,9.10
2018-06-03T18:54:39.966Z,8.80
2018-06-03T18:57:14.485Z,9.90
2018-06-03T18:59:44.437Z,9.77
2018-06-03T19:02:21.622Z,9.90
2018-06-03T19:04:51.153Z,9.60
2018-06-03T19:07:21.659Z,10.23
2018-06-03T19:09:51.971Z,9.97
2018-06-03T19:12:22.002Z,9.87
2018-06-03T19:14:51.574Z,10.60
2018-06-03T19:17:24.096Z,10.40
2018-06-03T19:19:56.669Z,10.50
2018-06-03T19:22:25.849Z,10.77
2018-06-03T19:25:02.826Z,10.57
2018-06-03T19:27:32.157Z,10.93
2018-06-03T19:30:08.035Z,10.67
2018-06-03T19:32:39.667Z,10.60
2018-06-03T19:35:14.130Z,10.57
2018-06-03T19:37:43.604Z,11.20
2018-06-03T19:40:13.200Z,12.33
2018-06-03T19:42:44.489Z,12.33
2018-06-03T19:45:16.034Z,12.20
2018-06-03T19:47:55.354Z,11.90
2018-06-03T19:50:24.422Z,12.17
2018-06-03T19:52:54.554Z,13.67
2018-06-03T19:55:25.921Z,12.60
2018-06-03T19:57:56.813Z,12.70
2018-06-03T20:00:29.279Z,13.70
2018-06-03T20:03:01.535Z,13.10
2018-06-03T20:05:31.625Z,14.10
2018-06-03T20:08:04.532Z,14.30
2018-06-03T20:10:36.110Z,15.43
2018-06-03T20:13:07.372Z,14.17
2018-06-03T20:15:39.835Z,13.67
2018-06-03T20:18:18.096Z,14.13
2018-06-03T20:20:49.938Z,14.03
2018-06-03T20:23:22.189Z,13.67
2018-06-03T20:25:54.583Z,14.00
2018-06-03T20:28:26.837Z,14.27
2018-06-03T20:30:59.923Z,15.23
2018-06-03T20:33:32.037Z,15.20
